createdAt,value
2019-05-09T00:00:53.369Z,3.67
2019-05-09T00:05:59.361Z,3.57
2019-05-09T00:11:05.213Z,3.47
2019-05-09T00:16:11.081Z,4.40
2019-05-09T00:21:23.793Z,4.33
2019-05-09T00:26:29.434Z,3.53
2019-05-09T00:32:06.595Z,4.07
2019-05-09T00:37:13.509Z,3.80
2019-05-09T00:42:20.688Z,4.70
2019-05-09T00:47:28.036Z,3.57
2019-05-09T00:52:33.988Z,6.47
2019-05-09T00:57:39.933Z,3.70
2019-05-09T01:02:45.854Z,3.20
2019-05-09T01:07:53.621Z,3.87
2019-05-09T01:12:59.318Z,4.23
2019-05-09T01:18:05.302Z,4.37
2019-05-09T01:23:11.398Z,4.63
2019-05-09T01:28:17.339Z,2.90
2019-05-09T01:33:45.025Z,3.13
2019-05-09T01:38:50.788Z,3.20
2019-05-09T01:43:56.859Z,3.80
2019-05-09T01:49:03.299Z,4.43
2019-05-09T01:54:09.562Z,2.60
2019-05-09T01:59:15.517Z,3.03
2019-05-09T02:04:21.474Z,3.73
2019-05-09T02:09:27.258Z,3.90
2019-05-09T02:14:54.136Z,3.33
2019-05-09T02:19:59.205Z,3.43
2019-05-09T02:25:07.081Z,3.37
2019-05-09T02:30:15.239Z,2.80
2019-05-09T02:35:20.989Z,3.57
2019-05-09T02:40:28.526Z,4.13
2019-05-09T02:45:41.511Z,3.20
2019-05-09T02:50:48.576Z,2.53
2019-05-09T02:55:54.811Z,2.93
2019-05-09T03:01:18.963Z,2.67
2019-05-09T03:06:28.131Z,3.40
2019-05-09T03:11:32.551Z,3.10
2019-05-09T03:16:39.781Z,2.17
2019-05-09T03:21:58.878Z,3.00
2019-05-09T03:27:10.246Z,2.63
2019-05-09T03:32:19.456Z,2.20
2019-05-09T03:37:23.764Z,2.90
2019-05-09T03:42:41.114Z,2.60
2019-05-09T03:47:54.657Z,3.03
2019-05-09T03:53:00.429Z,2.43
2019-05-09T03:58:18.705Z,3.03
2019-05-09T04:03:24.668Z,2.83
2019-05-09T04:08:30.582Z,3.20
2019-05-09T04:13:41.374Z,3.27
2019-05-09T04:18:47.993Z,2.80
2019-05-09T04:23:53.910Z,2.40
2019-05-09T04:28:59.905Z,2.73
2019-05-09T04:34:07.720Z,2.67
2019-05-09T04:39:18.968Z,2.53
2019-05-09T04:44:28.379Z,2.70
2019-05-09T04:49:39.678Z,4.00
2019-05-09T04:54:41.935Z,4.30
2019-05-09T04:59:47.714Z,3.20
2019-05-09T05:04:53.587Z,2.73
2019-05-09T05:09:59.562Z,2.63
2019-05-09T05:15:08.011Z,3.20
2019-05-09T05:20:18.888Z,2.60
2019-05-09T05:25:25.166Z,2.93
2019-05-09T05:30:31.241Z,3.00
2019-05-09T05:35:42.930Z,2.90
2019-05-09T05:40:49.866Z,3.70
2019-05-09T05:46:04.562Z,4.50
2019-05-09T05:51:10.504Z,5.50
2019-05-09T05:56:17.574Z,4.40
2019-05-09T06:01:23.797Z,4.00
2019-05-09T06:06:32.940Z,5.10
2019-05-09T06:11:38.423Z,5.93
2019-05-09T06:16:44.541Z,4.23
2019-05-09T06:21:52.348Z,4.37
2019-05-09T06:26:59.190Z,4.77
2019-05-09T06:32:05.016Z,5.27
2019-05-09T06:37:11.014Z,3.63
2019-05-09T06:42:18.134Z,3.53
2019-05-09T06:47:28.173Z,3.70
2019-05-09T06:52:34.141Z,3.90
2019-05-09T06:57:42.968Z,3.57
2019-05-09T07:03:00.984Z,4.90
2019-05-09T07:08:18.321Z,4.27
2019-05-09T07:13:25.100Z,4.40
2019-05-09T07:18:32.186Z,3.87
2019-05-09T07:23:38.266Z,4.30
2019-05-09T07:28:44.549Z,3.87
2019-05-09T07:33:58.746Z,5.50
2019-05-09T07:39:08.734Z,3.80
2019-05-09T07:44:14.609Z,3.77
2019-05-09T07:49:20.684Z,4.83
2019-05-09T07:54:29.210Z,3.27
2019-05-09T07:59:34.209Z,3.90
2019-05-09T08:04:40.072Z,2.92
2019-05-09T08:09:47.608Z,4.60
2019-05-09T08:15:07.317Z,3.23
2019-05-09T08:20:01.288Z,3.20
2019-05-09T08:25:08.201Z,4.43
2019-05-09T08:30:14.372Z,4.13
2019-05-09T08:35:20.331Z,4.50
2019-05-09T08:40:28.384Z,3.45
2019-05-09T08:45:33.947Z,3.33
2019-05-09T08:51:00.212Z,4.57
2019-05-09T08:56:08.459Z,2.95
2019-05-09T09:01:13.808Z,3.87
2019-05-09T09:06:19.895Z,3.10
2019-05-09T09:11:28.057Z,4.10
2019-05-09T09:16:33.349Z,3.55
2019-05-09T09:21:39.401Z,3.30
2019-05-09T09:26:45.461Z,3.95
2019-05-09T09:31:52.368Z,4.40
2019-05-09T09:37:03.466Z,3.37
2019-05-09T09:42:09.081Z,3.93
2019-05-09T09:47:19.532Z,4.22
2019-05-09T09:52:21.597Z,2.87
2019-05-09T09:57:28.845Z,4.13
2019-05-09T10:02:37.858Z,3.52
2019-05-09T10:07:43.806Z,3.12
2019-05-09T10:12:49.925Z,4.20
2019-05-09T10:18:11.753Z,4.12
2019-05-09T10:23:21.159Z,3.55
2019-05-09T10:28:25.456Z,3.55
2019-05-09T10:33:31.432Z,5.47
2019-05-09T10:38:39.815Z,3.67
2019-05-09T10:43:57.821Z,3.22
2019-05-09T10:49:04.291Z,3.08
2019-05-09T10:54:10.166Z,3.17
2019-05-09T10:59:18.246Z,2.92
2019-05-09T11:04:23.959Z,2.72
2019-05-09T11:09:29.812Z,4.17
2019-05-09T11:14:37.403Z,5.65
2019-05-09T11:19:43.625Z,1.57
2019-05-09T11:24:51.074Z,2.22
2019-05-09T11:29:57.982Z,2.35
2019-05-09T11:35:03.791Z,2.62
2019-05-09T11:40:09.835Z,2.67
2019-05-09T11:45:17.916Z,2.85
2019-05-09T11:50:24.571Z,4.10
2019-05-09T11:55:35.903Z,3.92
2019-05-09T12:00:38.313Z,2.12
2019-05-09T12:05:44.114Z,2.33
2019-05-09T12:10:50.920Z,2.02
2019-05-09T12:15:58.419Z,2.15
2019-05-09T12:21:04.405Z,2.27
2019-05-09T12:26:10.395Z,2.00
2019-05-09T12:31:18.132Z,2.30
2019-05-09T12:36:23.647Z,2.85
2019-05-09T12:41:31.485Z,1.85
2019-05-09T12:46:39.311Z,1.02
2019-05-09T12:51:45.053Z,1.67
2019-05-09T12:56:51.043Z,1.60
2019-05-09T13:01:58.055Z,1.80
2019-05-09T13:07:03.269Z,2.00
2019-05-09T13:12:09.357Z,1.92
2019-05-09T13:17:38.313Z,2.37
2019-05-09T13:22:47.774Z,2.12
2019-05-09T13:27:53.459Z,1.30
2019-05-09T13:32:59.795Z,1.30
2019-05-09T13:38:08.539Z,0.95
2019-05-09T13:43:13.379Z,1.40
2019-05-09T13:48:32.135Z,1.20
2019-05-09T13:53:28.430Z,1.32
2019-05-09T13:58:38.476Z,4.53
2019-05-09T14:03:44.490Z,2.15
2019-05-09T14:08:50.232Z,1.07
2019-05-09T14:13:57.587Z,3.87
2019-05-09T14:19:24.695Z,1.70
2019-05-09T14:24:15.690Z,2.33
2019-05-09T14:29:20.541Z,2.58
2019-05-09T14:34:30.194Z,2.12
2019-05-09T14:39:38.349Z,2.70
2019-05-09T14:44:44.113Z,4.53
2019-05-09T14:49:50.893Z,7.50
2019-05-09T14:54:58.128Z,12.80
2019-05-09T15:00:07.834Z,17.35
2019-05-09T15:05:13.774Z,19.73
2019-05-09T15:10:19.833Z,18.98
2019-05-09T15:15:28.596Z,18.25
2019-05-09T15:20:33.622Z,17.52
2019-05-09T15:25:40.021Z,20.57
2019-05-09T15:30:48.734Z,20.45
2019-05-09T15:35:53.897Z,20.37
2019-05-09T15:41:00.040Z,18.42
2019-05-09T15:46:12.745Z,15.18
2019-05-09T15:51:18.903Z,16.02
2019-05-09T15:56:24.963Z,16.05
2019-05-09T16:01:31.024Z,15.35
2019-05-09T16:06:39.188Z,11.85
2019-05-09T16:11:44.926Z,12.82
2019-05-09T16:16:50.913Z,12.50
2019-05-09T16:21:56.890Z,11.75
2019-05-09T16:27:02.952Z,11.83
2019-05-09T16:32:08.978Z,8.28
2019-05-09T16:37:15.099Z,7.65
2019-05-09T16:42:21.186Z,4.87
2019-05-09T16:47:28.433Z,5.33
2019-05-09T16:52:34.673Z,6.00
2019-05-09T16:57:40.977Z,6.28
2019-05-09T17:02:48.077Z,6.05
2019-05-09T17:07:54.339Z,7.60
2019-05-09T17:13:00.323Z,7.28
2019-05-09T17:18:07.383Z,6.45
2019-05-09T17:23:18.022Z,6.58
2019-05-09T17:28:24.218Z,6.20
2019-05-09T17:33:31.589Z,5.72
2019-05-09T17:38:38.326Z,6.20
2019-05-09T17:43:44.446Z,6.92
2019-05-09T17:48:50.537Z,7.95
2019-05-09T17:53:58.310Z,6.53
2019-05-09T17:59:04.018Z,7.67
2019-05-09T18:04:10.196Z,7.60
2019-05-09T18:09:18.793Z,10.57
2019-05-09T18:14:24.067Z,10.60
2019-05-09T18:19:30.155Z,7.58
2019-05-09T18:24:37.677Z,8.15
2019-05-09T18:29:44.183Z,8.40
2019-05-09T18:34:52.540Z,9.43
2019-05-09T18:39:58.212Z,9.43
2019-05-09T18:45:04.079Z,8.80
2019-05-09T18:50:10.467Z,9.43
2019-05-09T18:55:16.866Z,9.78
2019-05-09T19:00:26.852Z,9.33
2019-05-09T19:05:32.460Z,9.68
2019-05-09T19:10:38.642Z,9.68
2019-05-09T19:16:02.086Z,9.63
2019-05-09T19:21:21.211Z,8.75
2019-05-09T19:26:36.253Z,9.95
2019-05-09T19:31:42.227Z,9.58
2019-05-09T19:36:48.593Z,9.20
2019-05-09T19:41:54.693Z,9.95
2019-05-09T19:47:01.770Z,12.78
2019-05-09T19:52:08.064Z,10.90
2019-05-09T19:57:14.195Z,11.00
2019-05-09T20:02:20.129Z,11.40
2019-05-09T20:07:25.996Z,10.70
2019-05-09T20:12:41.688Z,11.28
2019-05-09T20:17:47.676Z,7.50
2019-05-09T20:22:53.658Z,7.22
2019-05-09T20:27:59.663Z,6.03
2019-05-09T20:33:05.616Z,5.67
2019-05-09T20:38:11.793Z,5.30
2019-05-09T20:43:17.935Z,5.72
2019-05-09T20:48:24.214Z,5.77
2019-05-09T20:53:30.438Z,5.87
2019-05-09T20:58:36.573Z,6.23
2019-05-09T21:03:58.566Z,6.73
2019-05-09T21:08:50.879Z,6.00
2019-05-09T21:13:57.054Z,6.60
2019-05-09T21:19:03.236Z,7.85
2019-05-09T21:24:09.282Z,7.72
2019-05-09T21:29:15.489Z,8.23
2019-05-09T21:34:21.874Z,8.88
2019-05-09T21:39:28.035Z,8.68
2019-05-09T21:44:33.957Z,9.23
2019-05-09T21:49:39.759Z,9.55
2019-05-09T21:54:45.823Z,10.23
2019-05-09T21:59:51.848Z,10.65
2019-05-09T22:04:57.835Z,14.55
2019-05-09T22:10:02.906Z,10.75
2019-05-09T22:15:09.082Z,11.10
2019-05-09T22:20:16.280Z,11.40
2019-05-09T22:25:22.353Z,11.97
2019-05-09T22:30:28.748Z,12.80
2019-05-09T22:35:34.621Z,11.73
2019-05-09T22:40:40.750Z,11.80
2019-05-09T22:45:46.665Z,10.43
2019-05-09T22:50:52.773Z,10.17
2019-05-09T22:55:58.762Z,10.50
2019-05-09T23:01:04.736Z,8.07
2019-05-09T23:06:10.532Z,7.43
2019-05-09T23:11:16.512Z,8.27
2019-05-09T23:16:23.734Z,9.57
2019-05-09T23:21:30.364Z,9.15
2019-05-09T23:26:36.516Z,6.83
2019-05-09T23:31:58.022Z,6.33
2019-05-09T23:37:03.990Z,5.20
2019-05-09T23:42:09.866Z,5.30
2019-05-09T23:47:15.773Z,5.30
2019-05-09T23:52:21.636Z,4.73
2019-05-09T23:57:45.210Z,5.43
